Disclaimer

Please do not use the information listed here in-flight or in-navigation, as they are not provided to us by the airports but are provided by volunteers, so they might be outdated.

Search


Regions


Airport information page

Radio informations:
PUERTO SUAREZ TW - 118.5 MHz
PUERTO SUAREZ RD - 6622 MHz

Airport informations:
Latitude: 18° 58' 31.01" S
Longitude: 057° 49' 14.11" W
Elevation: 439 feet - 134 meters
Operating hours: From sunrise to sunset (SR-SS)
Operating agency: Civil government, landing fees and diplomatic clearance may be required
Timezone: UTC-4
Fuel: Jet A1, without icing nhibitor.

100/130 MIL Spec, low lead, aviation gasoline (BLUE)

Runway information:
04/22 - 6562 x 118 feet< - >2000 x 36 meters

Recent METARs:
SLPS 201300Z 00000KT 9999 FEW015 SCT200 27/24 Q1013
SLPS 201400Z 09004KT 9999 SCT015 BKN200 28/24 Q1013
SLPS 201400Z 09004KT 9999 SCT015 BKN200 28/24 Q1013

Airport on the map: